TimeMDT,TemperatureF,Dew PointF,Humidity,Sea Level PressureIn,VisibilityMPH,Wind Direction,Wind SpeedMPH,Gust SpeedMPH,PrecipitationIn,Events,Conditions,WindDirDegrees,DateUTC
12:53 AM,69.1,45.0,42,29.97,10.0,ENE,8.1,-,N/A,,Clear,60,2013-07-27 06:53:00
1:53 AM,68.0,46.0,45,29.94,10.0,ENE,9.2,-,N/A,,Clear,60,2013-07-27 07:53:00
2:53 AM,64.0,46.9,54,29.94,10.0,East,9.2,-,N/A,,Clear,80,2013-07-27 08:53:00
3:53 AM,60.1,44.1,55,29.93,10.0,Variable,3.5,-,N/A,,Clear,0,2013-07-27 09:53:00
4:53 AM,57.9,45.0,62,29.94,10.0,NNW,3.5,-,N/A,,Clear,330,2013-07-27 10:53:00
5:53 AM,57.0,48.0,72,29.95,10.0,NNW,9.2,-,N/A,,Clear,330,2013-07-27 11:53:00
6:53 AM,62.1,48.9,62,29.95,10.0,NNW,6.9,-,N/A,,Clear,330,2013-07-27 12:53:00
7:53 AM,62.1,50.0,65,29.94,10.0,South,8.1,-,N/A,,Clear,190,2013-07-27 13:53:00
8:53 AM,66.9,50.0,54,29.92,10.0,WSW,3.5,-,N/A,,Clear,240,2013-07-27 14:53:00
9:53 AM,73.0,50.0,44,29.91,10.0,ENE,5.8,-,N/A,,Clear,60,2013-07-27 15:53:00
10:53 AM,75.0,50.0,41,29.91,10.0,North,8.1,-,N/A,,Clear,10,2013-07-27 16:53:00
11:53 AM,78.1,48.0,35,29.89,10.0,Variable,4.6,-,N/A,,Clear,0,2013-07-27 17:53:00
12:53 PM,78.1,46.9,33,29.90,10.0,SW,3.5,-,N/A,,Mostly Cloudy,220,2013-07-27 18:53:00
1:53 PM,81.0,37.0,21,29.88,10.0,North,13.8,-,N/A,,Scattered Clouds,350,2013-07-27 19:53:00
2:53 PM,73.0,46.9,39,29.94,10.0,NNW,20.7,29.9,N/A,,Overcast,340,2013-07-27 20:53:00
3:53 PM,75.0,44.1,33,29.94,10.0,NW,18.4,23.0,0.00,,Mostly Cloudy,310,2013-07-27 21:53:00
4:53 PM,73.0,43.0,34,29.93,10.0,NW,11.5,-,N/A,,Overcast,320,2013-07-27 22:53:00
5:53 PM,75.0,45.0,34,29.91,10.0,West,9.2,-,N/A,,Mostly Cloudy,260,2013-07-27 23:53:00
6:53 PM,73.9,45.0,35,29.88,10.0,SW,4.6,-,N/A,,Scattered Clouds,230,2013-07-28 00:53:00
7:53 PM,73.0,44.1,35,29.87,10.0,South,3.5,-,N/A,,Overcast,190,2013-07-28 01:53:00
8:53 PM,72.0,44.1,37,29.86,10.0,Calm,Calm,-,N/A,,Overcast,0,2013-07-28 02:53:00
9:53 PM,66.9,45.0,45,29.86,10.0,NE,6.9,-,N/A,,Scattered Clouds,40,2013-07-28 03:53:00
10:53 PM,66.0,45.0,47,29.85,10.0,NE,4.6,-,N/A,,Mostly Cloudy,50,2013-07-28 04:53:00
11:53 PM,63.0,45.0,52,29.84,10.0,ENE,6.9,-,N/A,,Clear,60,2013-07-28 05:53:00